Time;durP1;ratioP1;P1;durP2;ratioP2;P2;SDS_P1;SDS_P2;PMS_P1;PMS_P2;Temp;Humidity;BMP_temperature;BMP_pressure;BME280_temperature;BME280_humidity;BME280_pressure;Samples;Min_cycle;Max_cycle;Signal;HPM_P1;HPM_P2
2023/09/30 00:01:18;;;;;;;;;;;;;;;21.52;40.57;99943.59;3153999;28;19924;-69
2023/09/30 00:02:50;;;;;;;;;;;;;;;21.47;40.53;99942.31;3164239;28;19928;-69
2023/09/30 00:04:21;;;;;;;;;;;;;;;21.44;40.73;99943.41;3158179;28;20336;-68
2023/09/30 00:05:53;;;;;;;;;;;;;;;21.42;40.75;99940.09;3149244;28;19924;-69
2023/09/30 00:07:23;;;;;;;;;;;;;;;21.38;40.88;99933.38;3158578;28;20174;-69
2023/09/30 00:08:56;;;;;;;;;;;;;;;21.35;40.98;99938.91;3158307;28;19928;-69
2023/09/30 00:10:27;;;;;;;;;;;;;;;21.33;40.87;99935.56;3158065;28;19936;-68
2023/09/30 00:11:59;;;;;;;;;;;;;;;21.29;41.15;99940.28;3157929;28;19931;-68
2023/09/30 00:13:31;;;;;;;;;;;;;;;21.29;41.30;99947.38;3156319;28;19974;-67
2023/09/30 00:15:04;;;;;;;;;;;;;;;21.26;41.35;99934.41;3157986;28;20023;-68
2023/09/30 00:16:36;;;;;;;;;;;;;;;21.25;41.43;99941.53;3154832;28;19928;-68
2023/09/30 00:18:07;;;;;;;;;;;;;;;21.24;41.29;99939.03;3158180;28;19977;-68
2023/09/30 00:19:39;;;;;;;;;;;;;;;21.22;41.45;99933.84;3158131;28;20437;-69
2023/09/30 00:21:09;;;;;;;;;;;;;;;21.20;41.62;99935.78;3158192;28;19928;-68
2023/09/30 00:22:41;;;;;;;;;;;;;;;21.16;41.73;99934.38;3158732;28;19988;-69
2023/09/30 00:24:11;;;;;;;;;;;;;;;21.11;41.87;99941.88;3165946;28;19936;-68
2023/09/30 00:25:44;;;;;;;;;;;;;;;21.07;41.88;99936.03;3158113;28;20415;-69
2023/09/30 00:27:14;;;;;;;;;;;;;;;21.05;42.10;99935.31;3158104;28;20484;-69
2023/09/30 00:28:46;;;;;;;;;;;;;;;21.03;42.11;99931.13;3158017;28;19928;-69
2023/09/30 00:30:16;;;;;;;;;;;;;;;21.02;42.02;99925.00;3157619;28;20332;-69
2023/09/30 00:31:49;;;;;;;;;;;;;;;20.99;42.10;99927.91;3158059;28;20027;-69
2023/09/30 00:33:20;;;;;;;;;;;;;;;20.99;42.21;99927.91;3145691;28;19925;-69
2023/09/30 00:34:53;;;;;;;;;;;;;;;21.00;41.86;99926.09;3157606;28;20310;-69
2023/09/30 00:36:24;;;;;;;;;;;;;;;21.02;42.12;99926.81;3158120;28;20165;-69
2023/09/30 00:37:55;;;;;;;;;;;;;;;21.03;41.86;99931.13;3157668;28;19924;-69
2023/09/30 00:39:29;;;;;;;;;;;;;;;21.04;41.91;99927.53;3157579;28;19928;-69
2023/09/30 00:41:01;;;;;;;;;;;;;;;21.03;42.12;99929.34;3157788;28;20401;-69
2023/09/30 00:42:32;;;;;;;;;;;;;;;21.06;41.91;99931.72;3156376;28;20071;-68
2023/09/30 00:44:03;;;;;;;;;;;;;;;21.07;41.81;99928.09;3155765;28;19940;-69
2023/09/30 00:45:34;;;;;;;;;;;;;;;21.07;41.86;99933.38;3157859;28;20405;-69
2023/09/30 00:47:10;;;;;;;;;;;;;;;21.08;41.75;99929.75;3157927;28;19932;-68
2023/09/30 00:48:42;;;;;;;;;;;;;;;21.08;41.91;99932.41;3145640;28;20081;-68
2023/09/30 00:50:13;;;;;;;;;;;;;;;21.09;42.01;99934.09;3157562;28;19924;-68
2023/09/30 00:51:44;;;;;;;;;;;;;;;21.08;41.84;99931.56;3158165;28;19936;-69
2023/09/30 00:53:15;;;;;;;;;;;;;;;21.09;41.71;99933.25;3148958;28;19925;-69
2023/09/30 00:54:47;;;;;;;;;;;;;;;21.06;42.00;99934.38;3155224;28;20312;-69
2023/09/30 00:56:19;;;;;;;;;;;;;;;21.03;41.89;99933.75;3157776;28;19936;-69
2023/09/30 00:57:50;;;;;;;;;;;;;;;21.01;41.96;99928.63;3157708;28;20010;-69
2023/09/30 00:59:21;;;;;;;;;;;;;;;21.01;41.97;99928.63;3157495;28;19931;-69
2023/09/30 01:00:52;;;;;;;;;;;;;;;21.03;41.81;99931.97;3154257;28;19925;-69
2023/09/30 01:02:26;;;;;;;;;;;;;;;21.03;42.03;99925.81;3157795;28;19931;-69
2023/09/30 01:03:59;;;;;;;;;;;;;;;21.01;42.05;99927.78;3157988;28;19928;-69
2023/09/30 01:05:30;;;;;;;;;;;;;;;20.98;42.06;99931.53;3156478;28;19924;-69
2023/09/30 01:07:02;;;;;;;;;;;;;;;20.97;42.11;99932.50;3157676;28;19924;-69
2023/09/30 01:08:34;;;;;;;;;;;;;;;20.98;41.99;99936.00;3157971;28;19932;-69
2023/09/30 01:10:06;;;;;;;;;;;;;;;20.98;41.98;99936.00;3157694;28;20280;-68
2023/09/30 01:11:37;;;;;;;;;;;;;;;20.98;41.98;99936.81;3157984;28;19986;-69
2023/09/30 01:13:08;;;;;;;;;;;;;;;20.98;42.24;99931.53;3157009;28;20354;-69
2023/09/30 01:14:40;;;;;;;;;;;;;;;21.01;42.00;99927.78;3157760;28;20485;-68
2023/09/30 01:16:12;;;;;;;;;;;;;;;21.00;42.23;99937.53;3154087;28;19924;-69
2023/09/30 01:17:44;;;;;;;;;;;;;;;20.98;42.11;99930.69;3157539;28;20458;-69
2023/09/30 01:19:15;;;;;;;;;;;;;;;21.00;42.11;99941.97;3157433;28;20011;-69
2023/09/30 01:20:47;;;;;;;;;;;;;;;21.00;42.18;99931.38;3157775;28;19924;-69
2023/09/30 01:22:19;;;;;;;;;;;;;;;21.02;42.07;99937.41;3157568;28;19924;-69
2023/09/30 01:23:51;;;;;;;;;;;;;;;21.05;41.87;99937.97;3157247;28;19935;-69
2023/09/30 01:25:22;;;;;;;;;;;;;;;21.03;41.98;99939.06;3157863;28;19924;-69
2023/09/30 01:26:53;;;;;;;;;;;;;;;21.02;41.98;99927.63;3157725;28;20011;-69
2023/09/30 01:28:24;;;;;;;;;;;;;;;21.03;41.94;99937.28;3157193;28;20019;-69
2023/09/30 01:29:57;;;;;;;;;;;;;;;21.03;41.99;99931.97;3157633;28;20333;-69
2023/09/30 01:31:28;;;;;;;;;;;;;;;21.03;42.11;99929.34;3157121;28;20367;-69
2023/09/30 01:33:00;;;;;;;;;;;;;;;21.02;41.89;99935.56;3157331;28;19928;-69
2023/09/30 01:34:30;;;;;;;;;;;;;;;21.03;41.93;99933.75;3157592;28;19993;-69
2023/09/30 01:36:02;;;;;;;;;;;;;;;21.03;42.07;99939.06;3157306;28;20891;-69
2023/09/30 01:37:34;;;;;;;;;;;;;;;21.01;42.12;99936.56;3157484;28;19935;-68
2023/09/30 01:39:07;;;;;;;;;;;;;;;21.00;42.19;99936.69;3154241;28;20358;-69
2023/09/30 01:40:37;;;;;;;;;;;;;;;20.98;42.11;99934.19;3150392;28;19924;-69
2023/09/30 01:42:09;;;;;;;;;;;;;;;20.98;42.22;99936.00;3157066;28;19934;-69
2023/09/30 01:43:39;;;;;;;;;;;;;;;20.95;42.00;99931.78;3157274;28;19966;-69
2023/09/30 01:45:11;;;;;;;;;;;;;;;20.94;42.09;99938.06;3157195;28;20056;-70
2023/09/30 01:46:42;;;;;;;;;;;;;;;20.92;42.35;99937.34;3157162;28;20416;-71
2023/09/30 01:48:14;;;;;;;;;;;;;;;20.92;42.06;99945.31;3157715;28;19928;-69
2023/09/30 01:49:44;;;;;;;;;;;;;;;20.90;42.31;99941.94;3157392;28;19935;-69
2023/09/30 01:51:16;;;;;;;;;;;;;;;20.89;42.22;99938.47;3157582;28;20412;-69
2023/09/30 01:52:48;;;;;;;;;;;;;;;20.89;42.13;99942.91;3152296;28;20314;-69
2023/09/30 01:54:19;;;;;;;;;;;;;;;20.89;42.23;99932.31;3144829;28;20704;-69
2023/09/30 01:55:50;;;;;;;;;;;;;;;20.88;42.26;99938.56;3155622;28;19924;-69
2023/09/30 01:57:21;;;;;;;;;;;;;;;20.86;42.27;99933.44;3157584;28;19923;-69
2023/09/30 01:58:52;;;;;;;;;;;;;;;20.84;42.36;99931.88;3157124;28;19948;-69
2023/09/30 02:00:23;;;;;;;;;;;;;;;20.82;42.41;99929.38;3152403;28;19928;-69
2023/09/30 02:01:54;;;;;;;;;;;;;;;20.79;42.36;99931.44;3152271;28;19928;-69
2023/09/30 02:03:25;;;;;;;;;;;;;;;20.76;42.35;99927.22;3157486;28;19935;-69
2023/09/30 02:04:56;;;;;;;;;;;;;;;20.74;42.47;99934.47;3156053;28;19931;-69
2023/09/30 02:06:28;;;;;;;;;;;;;;;20.75;42.35;99925.56;3149515;28;19924;-69
2023/09/30 02:08:05;;;;;;;;;;;;;;;20.74;42.36;99925.72;3157441;28;19925;-68
2023/09/30 02:09:37;;;;;;;;;;;;;;;20.72;42.66;99928.47;3157256;28;20451;-69
2023/09/30 02:11:08;;;;;;;;;;;;;;;20.72;42.57;99928.47;3157326;28;19947;-69
2023/09/30 02:12:39;;;;;;;;;;;;;;;20.70;42.48;99925.13;3158132;28;19928;-69
2023/09/30 02:14:11;;;;;;;;;;;;;;;20.67;42.53;99928.88;3159687;28;19931;-69
2023/09/30 02:15:43;;;;;;;;;;;;;;;20.64;42.57;99926.47;3159371;28;20008;-70
2023/09/30 02:17:14;;;;;;;;;;;;;;;20.57;42.77;99927.97;3160039;28;19951;-69
2023/09/30 02:18:45;;;;;;;;;;;;;;;20.53;42.70;99931.84;3147353;28;20426;-69
2023/09/30 02:20:19;;;;;;;;;;;;;;;20.51;42.71;99938.22;3158660;28;19947;-69
2023/09/30 02:21:50;;;;;;;;;;;;;;;20.47;42.85;99942.94;3159534;28;20312;-68
2023/09/30 02:23:24;;;;;;;;;;;;;;;20.44;42.89;99937.91;3166099;28;19924;-68
2023/09/30 02:24:55;;;;;;;;;;;;;;;20.36;42.96;99938.53;3162372;28;19931;-68
2023/09/30 02:26:29;;;;;;;;;;;;;;;20.31;43.01;99942.53;3159465;28;20340;-69
2023/09/30 02:28:00;;;;;;;;;;;;;;;20.29;43.05;99932.09;3159287;28;20456;-69
2023/09/30 02:29:32;;;;;;;;;;;;;;;20.29;43.10;99936.50;3159737;28;20400;-69
2023/09/30 02:31:02;;;;;;;;;;;;;;;20.27;43.14;99933.19;3158819;28;19978;-69
2023/09/30 02:32:34;;;;;;;;;;;;;;;20.26;43.12;99935.00;3153347;28;20401;-69
2023/09/30 02:34:04;;;;;;;;;;;;;;;20.26;43.21;99934.13;3151801;28;19946;-69
2023/09/30 02:35:38;;;;;;;;;;;;;;;20.26;43.15;99934.13;3158445;28;19924;-69
2023/09/30 02:37:10;;;;;;;;;;;;;;;20.23;43.40;99936.09;3159361;28;19928;-69
2023/09/30 02:38:43;;;;;;;;;;;;;;;20.21;43.18;99935.38;3159162;28;19974;-69
2023/09/30 02:40:14;;;;;;;;;;;;;;;20.19;43.42;99932.00;3149130;28;19948;-69
2023/09/30 02:41:46;;;;;;;;;;;;;;;20.19;43.34;99939.09;3159425;28;19931;-69
2023/09/30 02:43:17;;;;;;;;;;;;;;;20.20;43.20;99930.19;3158725;28;20423;-67
2023/09/30 02:44:48;;;;;;;;;;;;;;;20.21;43.28;99931.88;3159403;28;19951;-68
2023/09/30 02:46:19;;;;;;;;;;;;;;;20.22;43.25;99925.63;3157373;28;19928;-68
2023/09/30 02:47:51;;;;;;;;;;;;;;;20.21;43.28;99922.13;3159295;28;20279;-68
2023/09/30 02:49:21;;;;;;;;;;;;;;;20.21;43.25;99929.25;3159383;28;19924;-68
2023/09/30 02:50:53;;;;;;;;;;;;;;;20.20;43.24;99927.53;3159293;28;20367;-69
2023/09/30 02:52:23;;;;;;;;;;;;;;;20.16;43.57;99931.41;3157505;28;20174;-69
2023/09/30 02:53:56;;;;;;;;;;;;;;;20.16;43.41;99928.78;3154788;28;19928;-69
2023/09/30 02:55:27;;;;;;;;;;;;;;;20.14;43.50;99928.91;3159413;28;19924;-69
2023/09/30 02:56:58;;;;;;;;;;;;;;;20.13;43.35;99929.88;3159450;28;19924;-68
2023/09/30 02:58:30;;;;;;;;;;;;;;;20.14;43.26;99935.97;3159151;28;19928;-69
2023/09/30 03:00:04;;;;;;;;;;;;;;;20.12;43.40;99927.38;3158859;28;19997;-68
2023/09/30 03:01:42;;;;;;;;;;;;;;;20.09;43.55;99917.03;3152149;28;19931;-69
2023/09/30 03:03:12;;;;;;;;;;;;;;;20.07;43.46;99930.38;3158866;28;19971;-68
2023/09/30 03:04:44;;;;;;;;;;;;;;;20.03;43.56;99926.31;3159301;28;19947;-68
2023/09/30 03:06:15;;;;;;;;;;;;;;;20.01;43.55;99920.31;3149439;28;19932;-68
2023/09/30 03:07:47;;;;;;;;;;;;;;;19.97;43.72;99921.53;3158868;28;19924;-68
2023/09/30 03:09:20;;;;;;;;;;;;;;;19.92;43.82;99926.34;3159343;28;20389;-68
2023/09/30 03:10:52;;;;;;;;;;;;;;;19.86;43.81;99917.13;3158833;28;20040;-68
2023/09/30 03:12:22;;;;;;;;;;;;;;;19.81;44.15;99921.94;3158115;28;19997;-68
2023/09/30 03:13:55;;;;;;;;;;;;;;;19.78;44.20;99920.38;3158828;28;20046;-68
2023/09/30 03:15:25;;;;;;;;;;;;;;;19.70;44.21;99916.69;3158786;28;19966;-68
2023/09/30 03:16:57;;;;;;;;;;;;;;;19.75;44.23;99925.91;3158517;28;20345;-69
2023/09/30 03:18:28;;;;;;;;;;;;;;;19.76;44.14;99921.50;3158959;28;19924;-68
2023/09/30 03:20:00;;;;;;;;;;;;;;;19.76;44.11;99922.34;3158667;28;19924;-69
2023/09/30 03:21:31;;;;;;;;;;;;;;;19.76;44.16;99918.84;3159222;28;19932;-69
2023/09/30 03:23:04;;;;;;;;;;;;;;;19.72;44.20;99920.06;3162368;28;20397;-68
2023/09/30 03:24:37;;;;;;;;;;;;;;;19.68;44.18;99919.47;3164154;28;20370;-68
2023/09/30 03:26:09;;;;;;;;;;;;;;;19.67;44.25;99923.09;3158830;28;20459;-69
2023/09/30 03:27:40;;;;;;;;;;;;;;;19.66;44.44;99920.56;3158832;28;19947;-69
2023/09/30 03:29:12;;;;;;;;;;;;;;;19.64;44.27;99925.06;3158553;28;19987;-69
2023/09/30 03:30:43;;;;;;;;;;;;;;;19.59;44.38;99927.28;3158319;28;20427;-69
2023/09/30 03:32:14;;;;;;;;;;;;;;;19.51;44.86;99922.59;3153513;28;19928;-69
2023/09/30 03:33:46;;;;;;;;;;;;;;;19.46;44.99;99924.75;3158853;28;19925;-68
2023/09/30 03:35:17;;;;;;;;;;;;;;;19.42;44.98;99933.91;3157965;28;20505;-68
2023/09/30 03:36:49;;;;;;;;;;;;;;;19.40;44.97;99925.25;3158580;28;20453;-68
2023/09/30 03:38:22;;;;;;;;;;;;;;;19.42;44.84;99931.25;3159010;28;19928;-68
2023/09/30 03:39:54;;;;;;;;;;;;;;;19.39;45.03;99920.94;3158493;28;20452;-69
2023/09/30 03:41:26;;;;;;;;;;;;;;;19.35;45.03;99925.63;3158923;28;19930;-69
2023/09/30 03:42:56;;;;;;;;;;;;;;;19.31;45.37;99929.47;3157601;28;20419;-68
2023/09/30 03:44:28;;;;;;;;;;;;;;;19.29;45.28;99928.75;3158711;28;19924;-68
2023/09/30 03:45:58;;;;;;;;;;;;;;;19.26;45.43;99926.38;3158327;28;20470;-68
2023/09/30 03:47:32;;;;;;;;;;;;;;;19.24;45.41;99929.13;3158868;28;19974;-69
2023/09/30 03:49:03;;;;;;;;;;;;;;;19.24;45.42;99926.47;3158554;28;19943;-69
2023/09/30 03:50:34;;;;;;;;;;;;;;;19.24;45.32;99928.28;3158833;28;19963;-68
2023/09/30 03:52:06;;;;;;;;;;;;;;;19.25;45.24;99932.59;3158500;28;19989;-68
2023/09/30 03:53:37;;;;;;;;;;;;;;;19.28;45.12;99933.19;3151988;28;19924;-69
2023/09/30 03:55:11;;;;;;;;;;;;;;;19.27;45.16;99928.03;3158770;28;19943;-69
2023/09/30 03:56:43;;;;;;;;;;;;;;;19.23;45.35;99927.44;3158519;28;20401;-69
2023/09/30 03:58:15;;;;;;;;;;;;;;;19.20;45.23;99925.06;3158320;28;19971;-67
2023/09/30 03:59:47;;;;;;;;;;;;;;;19.18;45.42;99921.69;3158430;28;19927;-68
2023/09/30 04:01:19;;;;;;;;;;;;;;;19.14;45.49;99920.25;3154108;28;20018;-68
2023/09/30 04:02:54;;;;;;;;;;;;;;;19.11;45.63;99920.50;3157872;28;19932;-69
2023/09/30 04:04:25;;;;;;;;;;;;;;;19.10;45.74;99922.28;3158289;28;19932;-68
2023/09/30 04:05:57;;;;;;;;;;;;;;;19.10;45.60;99917.00;3148909;28;20024;-68
2023/09/30 04:07:27;;;;;;;;;;;;;;;19.12;45.58;99923.97;3158755;28;19924;-69
2023/09/30 04:08:59;;;;;;;;;;;;;;;19.11;45.56;99923.16;3158302;28;19946;-68
2023/09/30 04:10:31;;;;;;;;;;;;;;;19.09;45.57;99922.41;3158256;28;20019;-69
2023/09/30 04:12:03;;;;;;;;;;;;;;;19.08;45.59;99918.09;3158090;28;20455;-68
2023/09/30 04:13:35;;;;;;;;;;;;;;;19.10;45.58;99934.63;3158197;28;19928;-68
2023/09/30 04:15:07;;;;;;;;;;;;;;;19.07;45.67;99922.53;3157523;28;20424;-68
2023/09/30 04:16:38;;;;;;;;;;;;;;;19.04;45.70;99927.22;3158098;28;19928;-68
2023/09/30 04:18:09;;;;;;;;;;;;;;;19.04;45.74;99930.69;3158451;28;19928;-69
2023/09/30 04:19:41;;;;;;;;;;;;;;;19.00;45.82;99917.84;3164899;28;20044;-69
2023/09/30 04:21:11;;;;;;;;;;;;;;;18.95;45.93;99920.84;3164358;28;19924;-69
2023/09/30 04:22:48;;;;;;;;;;;;;;;18.94;45.90;99931.53;3158580;28;19933;-68
2023/09/30 04:24:20;;;;;;;;;;;;;;;18.95;45.95;99934.03;3165447;28;20511;-69
2023/09/30 04:25:53;;;;;;;;;;;;;;;18.98;45.73;99938.25;3158027;28;19932;-69
2023/09/30 04:27:23;;;;;;;;;;;;;;;18.99;45.79;99938.13;3158066;28;19935;-68
2023/09/30 04:28:55;;;;;;;;;;;;;;;19.02;45.59;99940.53;3156542;28;20332;-68
2023/09/30 04:30:27;;;;;;;;;;;;;;;19.05;45.59;99942.09;3158141;28;19924;-69
2023/09/30 04:31:59;;;;;;;;;;;;;;;19.05;45.48;99950.84;3154330;28;19924;-68
2023/09/30 04:33:31;;;;;;;;;;;;;;;19.06;45.50;99949.88;3158023;28;19924;-67
2023/09/30 04:35:01;;;;;;;;;;;;;;;19.03;45.52;99954.56;3157356;28;20383;-67
2023/09/30 04:36:35;;;;;;;;;;;;;;;19.02;45.52;99958.19;3158079;28;19967;-68
2023/09/30 04:38:06;;;;;;;;;;;;;;;19.02;45.50;99958.19;3157889;28;19935;-68
2023/09/30 04:39:38;;;;;;;;;;;;;;;19.04;45.47;99953.59;3157967;28;19924;-69
2023/09/30 04:41:10;;;;;;;;;;;;;;;19.02;45.37;99955.53;3154977;28;19932;-69
2023/09/30 04:42:43;;;;;;;;;;;;;;;18.99;45.53;99951.34;3156071;28;19979;-67
2023/09/30 04:44:14;;;;;;;;;;;;;;;18.96;45.75;99954.22;3156094;28;19928;-68
2023/09/30 04:45:46;;;;;;;;;;;;;;;18.90;45.94;99954.69;3157458;28;19932;-67
2023/09/30 04:47:18;;;;;;;;;;;;;;;18.86;45.95;99956.69;3158301;28;19924;-68
2023/09/30 04:48:52;;;;;;;;;;;;;;;18.86;45.86;99959.34;3158051;28;20018;-67
2023/09/30 04:50:22;;;;;;;;;;;;;;;18.88;45.93;99961.03;3150316;28;19924;-68
2023/09/30 04:51:54;;;;;;;;;;;;;;;18.88;45.93;99961.03;3157849;28;19935;-68
2023/09/30 04:53:25;;;;;;;;;;;;;;;18.88;46.02;99961.03;3153298;28;19935;-69
2023/09/30 04:54:57;;;;;;;;;;;;;;;18.87;46.11;99960.19;3157710;28;19924;-66
2023/09/30 04:56:29;;;;;;;;;;;;;;;18.86;46.14;99969.06;3157611;28;20385;-66
2023/09/30 04:58:00;;;;;;;;;;;;;;;18.88;46.16;99971.59;3154677;28;19967;-66
2023/09/30 04:59:31;;;;;;;;;;;;;;;18.89;45.76;99970.63;3157278;28;20317;-69
2023/09/30 05:01:02;;;;;;;;;;;;;;;18.91;46.06;99958.16;3149966;28;19931;-65
2023/09/30 05:02:33;;;;;;;;;;;;;;;18.90;45.92;99961.75;3154974;28;19932;-66
2023/09/30 05:04:05;;;;;;;;;;;;;;;18.89;46.13;99962.72;3150158;28;20462;-67
2023/09/30 05:05:35;;;;;;;;;;;;;;;18.85;46.16;99956.84;3154224;28;20332;-65
2023/09/30 05:07:07;;;;;;;;;;;;;;;18.81;46.57;99961.53;3152668;28;19924;-65
2023/09/30 05:08:37;;;;;;;;;;;;;;;18.80;46.38;99962.44;3157736;28;20007;-65
2023/09/30 05:10:13;;;;;;;;;;;;;;;18.80;46.45;99965.09;3153037;28;19987;-69
2023/09/30 05:11:45;;;;;;;;;;;;;;;18.81;46.48;99963.28;3147272;28;19938;-69
2023/09/30 05:13:17;;;;;;;;;;;;;;;18.80;46.36;99959.81;3154918;28;19924;-72
2023/09/30 05:14:48;;;;;;;;;;;;;;;18.81;46.41;99964.16;3153147;28;19928;-69
2023/09/30 05:16:19;;;;;;;;;;;;;;;18.82;46.39;99960.56;3155571;28;19924;-68
2023/09/30 05:17:50;;;;;;;;;;;;;;;18.83;46.39;99966.66;3157588;28;19946;-69
2023/09/30 05:19:21;;;;;;;;;;;;;;;18.84;46.32;99971.84;3161554;28;19923;-67
2023/09/30 05:20:52;;;;;;;;;;;;;;;18.84;46.35;99969.19;3159862;28;19924;-71
2023/09/30 05:22:24;;;;;;;;;;;;;;;18.86;46.32;99969.06;3157554;28;20080;-72
2023/09/30 05:23:56;;;;;;;;;;;;;;;18.85;46.40;99972.66;3157427;28;19928;-71
2023/09/30 05:25:27;;;;;;;;;;;;;;;18.86;46.41;99969.06;3153085;28;19928;-73
2023/09/30 05:27:01;;;;;;;;;;;;;;;18.88;46.50;99971.59;3157317;28;20017;-70
2023/09/30 05:28:32;;;;;;;;;;;;;;;18.90;46.34;99969.66;3157638;28;19931;-66
2023/09/30 05:30:05;;;;;;;;;;;;;;;18.90;46.46;99978.44;3157308;28;19950;-68
2023/09/30 05:31:36;;;;;;;;;;;;;;;18.91;46.38;99976.63;3156451;28;20278;-69
2023/09/30 05:33:13;;;;;;;;;;;;;;;18.92;46.36;99973.03;3156923;28;19924;-71
2023/09/30 05:34:43;;;;;;;;;;;;;;;18.95;46.27;99973.63;3156633;28;20420;-71
2023/09/30 05:36:15;;;;;;;;;;;;;;;18.98;46.29;99973.38;3157296;28;19928;-70
2023/09/30 05:37:46;;;;;;;;;;;;;;;19.03;46.14;99980.97;3156627;28;19928;-68
2023/09/30 05:39:19;;;;;;;;;;;;;;;18.97;46.06;99970.88;3157969;28;19924;-67
2023/09/30 05:40:51;;;;;;;;;;;;;;;19.02;46.15;99985.41;3156937;28;20005;-68
2023/09/30 05:42:23;;;;;;;;;;;;;;;19.03;46.21;99980.97;3154295;28;20510;-67
2023/09/30 05:43:54;;;;;;;;;;;;;;;19.06;46.13;99986.00;3155836;28;20301;-70
2023/09/30 05:45:26;;;;;;;;;;;;;;;19.10;46.19;99982.16;3157192;28;19928;-68
2023/09/30 05:46:57;;;;;;;;;;;;;;;19.13;46.21;99987.19;3157419;28;19935;-67
2023/09/30 05:48:28;;;;;;;;;;;;;;;19.18;45.93;99990.31;3159918;28;19924;-68
2023/09/30 05:49:59;;;;;;;;;;;;;;;19.24;45.79;99986.38;3159933;28;20456;-64
2023/09/30 05:51:30;;;;;;;;;;;;;;;19.30;45.93;99986.72;3160237;28;19924;-68
2023/09/30 05:53:02;;;;;;;;;;;;;;;19.36;45.78;99989.84;3153026;28;20463;-67
2023/09/30 05:54:32;;;;;;;;;;;;;;;19.42;45.61;99989.34;3153413;28;19934;-66
2023/09/30 05:56:04;;;;;;;;;;;;;;;19.48;45.52;99983.59;3159903;28;19932;-67
2023/09/30 05:57:36;;;;;;;;;;;;;;;19.52;45.48;99990.28;3159804;28;19928;-69
2023/09/30 05:59:08;;;;;;;;;;;;;;;19.59;45.34;99988.88;3160009;28;19932;-69
2023/09/30 06:00:40;;;;;;;;;;;;;;;19.65;45.44;99991.06;3158556;28;19932;-67
2023/09/30 06:02:12;;;;;;;;;;;;;;;19.72;45.40;99986.94;3153766;28;19935;-64
2023/09/30 06:03:46;;;;;;;;;;;;;;;19.78;45.40;99989.09;3148735;28;19925;-65
2023/09/30 06:05:18;;;;;;;;;;;;;;;19.85;45.38;99991.25;3155080;28;20389;-63
2023/09/30 06:06:50;;;;;;;;;;;;;;;19.88;45.24;99983.09;3158977;28;19928;-64
2023/09/30 06:08:22;;;;;;;;;;;;;;;19.94;45.26;99991.34;3159804;28;19946;-63
2023/09/30 06:09:54;;;;;;;;;;;;;;;20.02;45.13;99988.06;3159332;28;19924;-64
2023/09/30 06:11:28;;;;;;;;;;;;;;;20.12;45.14;99991.66;3159662;28;19973;-64
2023/09/30 06:13:00;;;;;;;;;;;;;;;20.21;45.03;99990.06;3159025;28;19978;-65
2023/09/30 06:14:31;;;;;;;;;;;;;;;20.29;44.87;99987.63;3159091;28;19967;-68
2023/09/30 06:16:03;;;;;;;;;;;;;;;20.37;44.84;99990.44;3159228;28;19924;-67
2023/09/30 06:17:34;;;;;;;;;;;;;;;20.48;44.82;99994.03;3159576;28;19956;-64
2023/09/30 06:19:06;;;;;;;;;;;;;;;20.63;44.96;99990.94;3154682;28;20314;-68
2023/09/30 06:20:38;;;;;;;;;;;;;;;20.81;44.73;100000.97;3155532;28;19928;-68
2023/09/30 06:22:09;;;;;;;;;;;;;;;20.98;44.74;99989.78;3149859;28;19932;-66
2023/09/30 06:23:40;;;;;;;;;;;;;;;21.18;44.59;99989.84;3160246;28;19924;-65
2023/09/30 06:25:11;;;;;;;;;;;;;;;21.40;44.49;99991.53;3160244;28;19986;-67
2023/09/30 06:26:42;;;;;;;;;;;;;;;21.62;44.21;99988.66;3159090;28;20073;-67
2023/09/30 06:28:14;;;;;;;;;;;;;;;21.84;44.08;99998.19;3152238;28;19935;-65
2023/09/30 06:29:46;;;;;;;;;;;;;;;21.97;43.75;99996.13;3159580;28;19950;-67
2023/09/30 06:31:17;;;;;;;;;;;;;;;22.15;43.62;99993.63;3159092;28;19924;-68
2023/09/30 06:32:49;;;;;;;;;;;;;;;22.33;43.15;99982.34;3159287;28;19924;-67
2023/09/30 06:34:19;;;;;;;;;;;;;;;22.58;43.06;99994.22;3159134;28;19950;-68
2023/09/30 06:35:51;;;;;;;;;;;;;;;22.89;42.77;99998.34;3157531;28;19924;-68
2023/09/30 06:37:21;;;;;;;;;;;;;;;23.23;42.61;99989.88;3152107;28;19979;-70
2023/09/30 06:38:53;;;;;;;;;;;;;;;23.57;42.55;100002.56;3158828;28;20317;-66
2023/09/30 06:40:23;;;;;;;;;;;;;;;23.86;41.81;99993.63;3158637;28;20360;-66
2023/09/30 06:41:55;;;;;;;;;;;;;;;24.11;41.18;99992.91;3157183;28;19932;-66
2023/09/30 06:43:27;;;;;;;;;;;;;;;24.24;40.67;99992.50;3156447;28;19924;-70
2023/09/30 06:44:59;;;;;;;;;;;;;;;24.40;40.08;99991.81;3158138;28;20380;-67
2023/09/30 06:46:29;;;;;;;;;;;;;;;24.66;39.52;99995.38;3158086;28;19928;-67
2023/09/30 06:48:01;;;;;;;;;;;;;;;24.90;39.34;99996.53;3158686;28;19930;-67
2023/09/30 06:49:33;;;;;;;;;;;;;;;25.12;39.13;99990.69;3156115;28;20504;-68
2023/09/30 06:51:05;;;;;;;;;;;;;;;25.17;37.83;99993.75;3158162;28;20267;-66
2023/09/30 06:52:36;;;;;;;;;;;;;;;25.21;37.69;99993.41;3155069;28;19935;-67
2023/09/30 06:54:07;;;;;;;;;;;;;;;25.27;37.41;99996.28;3154324;28;19928;-68
2023/09/30 06:55:38;;;;;;;;;;;;;;;25.39;37.41;99992.31;3158345;28;19974;-67
2023/09/30 06:57:10;;;;;;;;;;;;;;;25.53;36.77;99990.06;3158321;28;19928;-68
2023/09/30 06:58:43;;;;;;;;;;;;;;;25.81;37.11;99993.31;3157913;28;19924;-69
2023/09/30 07:00:14;;;;;;;;;;;;;;;26.00;36.05;99993.06;3158424;28;19936;-68
2023/09/30 07:01:46;;;;;;;;;;;;;;;26.16;35.72;99992.22;3151965;28;19932;-68
2023/09/30 07:03:17;;;;;;;;;;;;;;;26.36;35.28;99990.06;3149268;28;19928;-72
2023/09/30 07:04:48;;;;;;;;;;;;;;;26.37;35.27;99990.91;3158677;28;19924;-71
2023/09/30 07:06:23;;;;;;;;;;;;;;;26.29;35.14;99994.41;3152020;28;20086;-71
2023/09/30 07:07:54;;;;;;;;;;;;;;;26.40;35.16;99994.06;3158221;28;19975;-70
2023/09/30 07:09:26;;;;;;;;;;;;;;;26.64;34.62;99995.09;3158513;28;19924;-70
2023/09/30 07:10:58;;;;;;;;;;;;;;;26.90;34.38;99992.22;3157416;28;19935;-70
2023/09/30 07:12:28;;;;;;;;;;;;;;;27.06;33.80;100004.69;3156576;28;20464;-68
2023/09/30 07:14:01;;;;;;;;;;;;;;;27.35;33.50;99998.81;3153418;28;20043;-69
2023/09/30 07:15:32;;;;;;;;;;;;;;;27.63;33.42;99994.66;3155607;28;19935;-69
2023/09/30 07:17:04;;;;;;;;;;;;;;;27.86;32.75;99988.53;3154264;28;19932;-70
2023/09/30 07:18:34;;;;;;;;;;;;;;;28.02;32.46;99996.47;3158116;28;19932;-70
2023/09/30 07:20:07;;;;;;;;;;;;;;;28.35;32.49;99990.88;3161860;28;19928;-68
2023/09/30 07:21:38;;;;;;;;;;;;;;;28.74;32.34;99988.03;3154885;28;19924;-70
2023/09/30 07:23:09;;;;;;;;;;;;;;;28.99;31.88;99985.94;3160534;28;20100;-69
2023/09/30 07:24:40;;;;;;;;;;;;;;;29.02;31.05;99992.81;3157924;28;19971;-68
2023/09/30 07:26:11;;;;;;;;;;;;;;;29.25;31.01;99998.06;3158151;28;19925;-71
2023/09/30 07:27:42;;;;;;;;;;;;;;;29.53;30.62;99997.41;3158249;28;20367;-72
2023/09/30 07:29:15;;;;;;;;;;;;;;;29.57;30.26;99986.09;3158219;28;20314;-69
2023/09/30 07:30:47;;;;;;;;;;;;;;;29.76;29.87;99987.41;3157771;28;19931;-68
2023/09/30 07:32:18;;;;;;;;;;;;;;;29.84;29.55;99997.19;3158117;28;19928;-70
2023/09/30 07:33:49;;;;;;;;;;;;;;;29.85;29.70;100001.53;3158056;28;20006;-71
2023/09/30 07:35:20;;;;;;;;;;;;;;;29.97;29.39;100005.38;3157860;28;19935;-74
2023/09/30 07:36:51;;;;;;;;;;;;;;;30.27;29.18;99997.25;3157949;28;19931;-69
2023/09/30 07:38:23;;;;;;;;;;;;;;;30.56;29.09;100002.47;3150888;28;19968;-70
2023/09/30 07:39:53;;;;;;;;;;;;;;;30.83;28.88;100002.69;3091964;28;1872119;-67
2023/09/30 07:41:25;;;;;;;;;;;;;;;31.06;28.23;99999.75;3158756;28;20475;-65
2023/09/30 07:42:57;;;;;;;;;;;;;;;31.17;27.96;99998.34;3157917;28;20404;-67
2023/09/30 07:44:29;;;;;;;;;;;;;;;31.42;28.08;100004.91;3156702;28;20356;-67
2023/09/30 07:46:05;;;;;;;;;;;;;;;31.73;27.83;99999.03;3158375;28;20261;-70
2023/09/30 07:47:36;;;;;;;;;;;;;;;32.06;27.46;100001.00;3158424;28;19931;-66
2023/09/30 07:49:08;;;;;;;;;;;;;;;32.07;27.09;99996.47;3158580;28;19924;-66
2023/09/30 07:50:39;;;;;;;;;;;;;;;32.41;27.09;99998.13;3158633;28;19928;-65
2023/09/30 07:52:10;;;;;;;;;;;;;;;32.70;26.71;99996.91;3158487;28;20267;-63
2023/09/30 07:53:42;;;;;;;;;;;;;;;32.95;26.21;99999.81;3156548;28;20423;-63
2023/09/30 07:55:13;;;;;;;;;;;;;;;33.01;25.99;99995.44;3158221;28;19936;-65
2023/09/30 07:56:44;;;;;;;;;;;;;;;33.07;25.89;99987.34;3158776;28;19935;-63